sensor_id;sensor_type;location;lat;lon;timestamp;P1;durP1;ratioP1;P2;durP2;ratioP2
71639;SDS011;60912;48.968;10.124;2023-07-31T00:00:38;9.00;;;1.55;;
71639;SDS011;60912;48.968;10.124;2023-07-31T00:03:04;4.22;;;1.73;;
71639;SDS011;60912;48.968;10.124;2023-07-31T00:05:29;3.93;;;1.40;;
71639;SDS011;60912;48.968;10.124;2023-07-31T00:07:58;4.43;;;1.50;;
71639;SDS011;60912;48.968;10.124;2023-07-31T00:10:29;4.43;;;1.50;;
71639;SDS011;60912;48.968;10.124;2023-07-31T00:12:54;3.03;;;1.40;;
71639;SDS011;60912;48.968;10.124;2023-07-31T00:15:22;5.82;;;1.52;;
71639;SDS011;60912;48.968;10.124;2023-07-31T00:17:48;4.97;;;1.37;;
71639;SDS011;60912;48.968;10.124;2023-07-31T00:20:13;4.40;;;1.20;;
71639;SDS011;60912;48.968;10.124;2023-07-31T00:22:39;6.93;;;1.47;;
71639;SDS011;60912;48.968;10.124;2023-07-31T00:25:04;5.07;;;1.50;;
71639;SDS011;60912;48.968;10.124;2023-07-31T00:27:31;4.47;;;1.25;;
71639;SDS011;60912;48.968;10.124;2023-07-31T00:29:57;7.43;;;1.77;;
71639;SDS011;60912;48.968;10.124;2023-07-31T00:32:22;5.05;;;1.50;;
71639;SDS011;60912;48.968;10.124;2023-07-31T00:34:47;4.27;;;1.57;;
71639;SDS011;60912;48.968;10.124;2023-07-31T00:37:13;3.57;;;1.40;;
71639;SDS011;60912;48.968;10.124;2023-07-31T00:39:38;5.03;;;1.40;;
71639;SDS011;60912;48.968;10.124;2023-07-31T00:42:04;7.83;;;1.67;;
71639;SDS011;60912;48.968;10.124;2023-07-31T00:44:29;6.07;;;1.55;;
71639;SDS011;60912;48.968;10.124;2023-07-31T00:46:55;3.57;;;1.40;;
71639;SDS011;60912;48.968;10.124;2023-07-31T00:49:21;5.45;;;1.50;;
71639;SDS011;60912;48.968;10.124;2023-07-31T00:51:47;6.57;;;1.70;;
71639;SDS011;60912;48.968;10.124;2023-07-31T00:54:13;5.23;;;1.57;;
71639;SDS011;60912;48.968;10.124;2023-07-31T00:56:38;4.53;;;1.37;;
71639;SDS011;60912;48.968;10.124;2023-07-31T00:59:05;6.90;;;1.55;;
71639;SDS011;60912;48.968;10.124;2023-07-31T01:01:31;3.83;;;1.50;;
71639;SDS011;60912;48.968;10.124;2023-07-31T01:03:56;3.23;;;1.43;;
71639;SDS011;60912;48.968;10.124;2023-07-31T01:09:10;6.07;;;1.70;;
71639;SDS011;60912;48.968;10.124;2023-07-31T01:11:56;4.33;;;1.63;;
71639;SDS011;60912;48.968;10.124;2023-07-31T01:14:24;4.45;;;1.60;;
71639;SDS011;60912;48.968;10.124;2023-07-31T01:16:50;4.57;;;1.50;;
71639;SDS011;60912;48.968;10.124;2023-07-31T01:19:16;4.80;;;1.60;;
71639;SDS011;60912;48.968;10.124;2023-07-31T01:27:12;6.68;;;1.70;;
71639;SDS011;60912;48.968;10.124;2023-07-31T01:29:49;6.28;;;1.52;;
71639;SDS011;60912;48.968;10.124;2023-07-31T01:32:39;5.25;;;1.60;;
71639;SDS011;60912;48.968;10.124;2023-07-31T01:35:06;4.82;;;1.48;;
71639;SDS011;60912;48.968;10.124;2023-07-31T01:37:32;4.73;;;1.63;;
71639;SDS011;60912;48.968;10.124;2023-07-31T01:39:57;4.00;;;1.45;;
71639;SDS011;60912;48.968;10.124;2023-07-31T01:42:23;6.57;;;1.60;;
71639;SDS011;60912;48.968;10.124;2023-07-31T01:44:48;5.17;;;1.60;;
71639;SDS011;60912;48.968;10.124;2023-07-31T01:47:13;4.53;;;1.30;;
71639;SDS011;60912;48.968;10.124;2023-07-31T01:49:39;5.23;;;1.60;;
71639;SDS011;60912;48.968;10.124;2023-07-31T01:52:04;3.67;;;1.60;;
71639;SDS011;60912;48.968;10.124;2023-07-31T01:54:30;5.23;;;1.80;;
71639;SDS011;60912;48.968;10.124;2023-07-31T01:56:56;6.32;;;1.70;;
71639;SDS011;60912;48.968;10.124;2023-07-31T01:59:21;7.83;;;1.60;;
71639;SDS011;60912;48.968;10.124;2023-07-31T02:01:46;4.43;;;1.90;;
71639;SDS011;60912;48.968;10.124;2023-07-31T02:04:12;4.95;;;1.85;;
71639;SDS011;60912;48.968;10.124;2023-07-31T02:06:37;6.73;;;1.83;;
71639;SDS011;60912;48.968;10.124;2023-07-31T02:09:04;4.55;;;1.70;;
71639;SDS011;60912;48.968;10.124;2023-07-31T02:11:29;4.13;;;1.83;;
71639;SDS011;60912;48.968;10.124;2023-07-31T02:13:54;4.20;;;1.60;;
71639;SDS011;60912;48.968;10.124;2023-07-31T02:16:20;4.77;;;1.90;;
71639;SDS011;60912;48.968;10.124;2023-07-31T02:18:48;3.97;;;1.63;;
71639;SDS011;60912;48.968;10.124;2023-07-31T02:21:19;6.47;;;2.00;;
71639;SDS011;60912;48.968;10.124;2023-07-31T02:23:56;7.03;;;1.67;;
71639;SDS011;60912;48.968;10.124;2023-07-31T02:26:42;3.25;;;1.50;;
71639;SDS011;60912;48.968;10.124;2023-07-31T02:29:15;6.15;;;1.52;;
71639;SDS011;60912;48.968;10.124;2023-07-31T02:31:51;5.18;;;1.50;;
71639;SDS011;60912;48.968;10.124;2023-07-31T02:34:32;6.33;;;1.57;;
71639;SDS011;60912;48.968;10.124;2023-07-31T02:37:00;7.13;;;1.92;;
71639;SDS011;60912;48.968;10.124;2023-07-31T02:39:28;4.45;;;1.45;;
71639;SDS011;60912;48.968;10.124;2023-07-31T02:41:54;4.30;;;1.50;;
71639;SDS011;60912;48.968;10.124;2023-07-31T02:44:22;4.80;;;1.55;;
71639;SDS011;60912;48.968;10.124;2023-07-31T02:46:50;4.45;;;1.60;;
71639;SDS011;60912;48.968;10.124;2023-07-31T02:49:16;4.53;;;1.50;;
71639;SDS011;60912;48.968;10.124;2023-07-31T02:51:44;5.90;;;2.15;;
71639;SDS011;60912;48.968;10.124;2023-07-31T02:54:10;6.90;;;1.88;;
71639;SDS011;60912;48.968;10.124;2023-07-31T02:56:43;5.10;;;1.70;;
71639;SDS011;60912;48.968;10.124;2023-07-31T02:59:19;5.13;;;2.00;;
71639;SDS011;60912;48.968;10.124;2023-07-31T03:01:47;4.63;;;1.60;;
71639;SDS011;60912;48.968;10.124;2023-07-31T03:04:23;7.68;;;1.60;;
71639;SDS011;60912;48.968;10.124;2023-07-31T03:06:52;4.60;;;1.80;;
71639;SDS011;60912;48.968;10.124;2023-07-31T03:09:26;5.80;;;1.70;;
71639;SDS011;60912;48.968;10.124;2023-07-31T03:11:57;5.63;;;1.70;;
71639;SDS011;60912;48.968;10.124;2023-07-31T03:14:26;6.03;;;1.70;;
71639;SDS011;60912;48.968;10.124;2023-07-31T03:17:03;5.18;;;1.63;;
71639;SDS011;60912;48.968;10.124;2023-07-31T03:19:34;5.22;;;1.75;;
71639;SDS011;60912;48.968;10.124;2023-07-31T03:22:00;7.20;;;1.60;;
71639;SDS011;60912;48.968;10.124;2023-07-31T03:24:26;5.30;;;2.03;;
71639;SDS011;60912;48.968;10.124;2023-07-31T03:26:59;4.43;;;1.70;;
71639;SDS011;60912;48.968;10.124;2023-07-31T03:29:28;7.43;;;1.60;;
71639;SDS011;60912;48.968;10.124;2023-07-31T03:31:59;7.03;;;1.77;;
71639;SDS011;60912;48.968;10.124;2023-07-31T03:34:32;4.90;;;1.63;;
71639;SDS011;60912;48.968;10.124;2023-07-31T03:36:58;5.00;;;2.10;;
71639;SDS011;60912;48.968;10.124;2023-07-31T03:39:30;5.75;;;1.90;;
71639;SDS011;60912;48.968;10.124;2023-07-31T03:42:00;5.10;;;1.88;;
71639;SDS011;60912;48.968;10.124;2023-07-31T03:44:41;7.45;;;2.00;;
71639;SDS011;60912;48.968;10.124;2023-07-31T03:47:13;5.80;;;1.77;;
71639;SDS011;60912;48.968;10.124;2023-07-31T03:49:41;6.33;;;1.60;;
71639;SDS011;60912;48.968;10.124;2023-07-31T03:52:07;4.72;;;1.80;;
71639;SDS011;60912;48.968;10.124;2023-07-31T03:54:35;5.82;;;1.83;;
71639;SDS011;60912;48.968;10.124;2023-07-31T03:57:01;6.53;;;1.70;;
71639;SDS011;60912;48.968;10.124;2023-07-31T03:59:37;5.03;;;1.70;;
71639;SDS011;60912;48.968;10.124;2023-07-31T04:02:05;5.30;;;1.90;;
71639;SDS011;60912;48.968;10.124;2023-07-31T04:04:41;5.03;;;1.70;;
71639;SDS011;60912;48.968;10.124;2023-07-31T04:07:11;4.43;;;1.70;;
71639;SDS011;60912;48.968;10.124;2023-07-31T04:09:45;3.88;;;1.60;;
71639;SDS011;60912;48.968;10.124;2023-07-31T04:12:18;5.43;;;1.90;;
71639;SDS011;60912;48.968;10.124;2023-07-31T04:14:56;7.10;;;1.58;;
71639;SDS011;60912;48.968;10.124;2023-07-31T04:17:23;4.80;;;1.52;;
71639;SDS011;60912;48.968;10.124;2023-07-31T04:19:55;5.30;;;2.00;;
71639;SDS011;60912;48.968;10.124;2023-07-31T04:22:26;4.50;;;1.80;;
71639;SDS011;60912;48.968;10.124;2023-07-31T04:25:02;3.88;;;1.67;;
71639;SDS011;60912;48.968;10.124;2023-07-31T04:27:51;5.80;;;1.88;;
71639;SDS011;60912;48.968;10.124;2023-07-31T04:33:37;4.27;;;1.60;;
71639;SDS011;60912;48.968;10.124;2023-07-31T04:36:11;4.00;;;1.70;;
71639;SDS011;60912;48.968;10.124;2023-07-31T04:38:39;5.05;;;1.80;;
71639;SDS011;60912;48.968;10.124;2023-07-31T04:41:21;6.35;;;1.65;;
71639;SDS011;60912;48.968;10.124;2023-07-31T04:43:59;4.65;;;1.90;;
71639;SDS011;60912;48.968;10.124;2023-07-31T04:46:28;3.40;;;1.43;;
71639;SDS011;60912;48.968;10.124;2023-07-31T04:48:57;4.90;;;1.77;;
71639;SDS011;60912;48.968;10.124;2023-07-31T04:51:22;3.97;;;1.45;;
71639;SDS011;60912;48.968;10.124;2023-07-31T04:53:51;6.43;;;1.73;;
71639;SDS011;60912;48.968;10.124;2023-07-31T04:56:19;5.50;;;1.75;;
71639;SDS011;60912;48.968;10.124;2023-07-31T04:58:48;7.57;;;1.70;;
71639;SDS011;60912;48.968;10.124;2023-07-31T05:01:26;4.50;;;1.60;;
71639;SDS011;60912;48.968;10.124;2023-07-31T05:03:52;5.40;;;1.50;;
71639;SDS011;60912;48.968;10.124;2023-07-31T05:06:18;5.40;;;1.30;;
71639;SDS011;60912;48.968;10.124;2023-07-31T05:08:45;3.35;;;1.55;;
71639;SDS011;60912;48.968;10.124;2023-07-31T05:11:13;4.47;;;1.40;;
71639;SDS011;60912;48.968;10.124;2023-07-31T05:13:42;4.13;;;1.25;;
71639;SDS011;60912;48.968;10.124;2023-07-31T05:16:13;7.50;;;1.50;;
71639;SDS011;60912;48.968;10.124;2023-07-31T05:18:48;4.68;;;1.60;;
71639;SDS011;60912;48.968;10.124;2023-07-31T05:21:17;5.20;;;1.60;;
71639;SDS011;60912;48.968;10.124;2023-07-31T05:23:42;5.10;;;1.67;;
71639;SDS011;60912;48.968;10.124;2023-07-31T05:26:10;4.73;;;2.00;;
71639;SDS011;60912;48.968;10.124;2023-07-31T05:28:39;6.63;;;2.03;;
71639;SDS011;60912;48.968;10.124;2023-07-31T05:31:08;6.75;;;1.60;;
71639;SDS011;60912;48.968;10.124;2023-07-31T05:33:39;3.38;;;1.42;;
71639;SDS011;60912;48.968;10.124;2023-07-31T05:36:05;8.53;;;1.77;;
71639;SDS011;60912;48.968;10.124;2023-07-31T05:38:41;6.90;;;1.80;;
71639;SDS011;60912;48.968;10.124;2023-07-31T05:41:08;4.38;;;1.70;;
71639;SDS011;60912;48.968;10.124;2023-07-31T05:43:44;3.80;;;1.27;;
71639;SDS011;60912;48.968;10.124;2023-07-31T05:46:10;4.60;;;1.58;;
71639;SDS011;60912;48.968;10.124;2023-07-31T05:48:37;4.27;;;1.60;;
71639;SDS011;60912;48.968;10.124;2023-07-31T05:51:34;5.57;;;1.70;;
71639;SDS011;60912;48.968;10.124;2023-07-31T05:54:12;5.78;;;1.60;;
71639;SDS011;60912;48.968;10.124;2023-07-31T05:56:50;6.25;;;1.70;;
71639;SDS011;60912;48.968;10.124;2023-07-31T05:59:15;5.68;;;1.70;;
71639;SDS011;60912;48.968;10.124;2023-07-31T06:01:50;4.80;;;1.63;;
71639;SDS011;60912;48.968;10.124;2023-07-31T06:04:15;8.48;;;1.85;;
71639;SDS011;60912;48.968;10.124;2023-07-31T06:06:59;6.10;;;1.70;;
71639;SDS011;60912;48.968;10.124;2023-07-31T06:09:34;4.18;;;1.58;;
71639;SDS011;60912;48.968;10.124;2023-07-31T06:12:02;6.80;;;1.70;;
71639;SDS011;60912;48.968;10.124;2023-07-31T06:14:38;5.68;;;1.80;;
71639;SDS011;60912;48.968;10.124;2023-07-31T06:17:09;6.28;;;1.90;;
71639;SDS011;60912;48.968;10.124;2023-07-31T06:19:35;4.60;;;1.73;;
71639;SDS011;60912;48.968;10.124;2023-07-31T06:22:09;4.78;;;1.52;;
71639;SDS011;60912;48.968;10.124;2023-07-31T06:24:37;7.80;;;2.08;;
71639;SDS011;60912;48.968;10.124;2023-07-31T06:27:13;11.60;;;1.80;;
71639;SDS011;60912;48.968;10.124;2023-07-31T06:29:42;7.22;;;1.73;;
71639;SDS011;60912;48.968;10.124;2023-07-31T06:32:10;7.68;;;2.08;;
71639;SDS011;60912;48.968;10.124;2023-07-31T06:34:38;8.88;;;1.70;;
71639;SDS011;60912;48.968;10.124;2023-07-31T06:37:46;7.38;;;1.73;;
71639;SDS011;60912;48.968;10.124;2023-07-31T06:40:16;4.50;;;1.63;;
71639;SDS011;60912;48.968;10.124;2023-07-31T06:42:54;4.78;;;1.52;;
71639;SDS011;60912;48.968;10.124;2023-07-31T06:45:29;7.63;;;1.90;;
71639;SDS011;60912;48.968;10.124;2023-07-31T06:48:02;4.68;;;2.05;;
71639;SDS011;60912;48.968;10.124;2023-07-31T06:50:42;5.88;;;1.58;;
71639;SDS011;60912;48.968;10.124;2023-07-31T06:53:10;5.20;;;1.70;;
71639;SDS011;60912;48.968;10.124;2023-07-31T06:55:43;5.88;;;1.90;;
71639;SDS011;60912;48.968;10.124;2023-07-31T06:58:16;3.93;;;1.60;;
71639;SDS011;60912;48.968;10.124;2023-07-31T07:00:50;4.47;;;1.60;;
71639;SDS011;60912;48.968;10.124;2023-07-31T07:03:18;4.32;;;1.38;;
71639;SDS011;60912;48.968;10.124;2023-07-31T07:08:43;3.97;;;1.30;;
71639;SDS011;60912;48.968;10.124;2023-07-31T07:11:12;7.00;;;1.57;;
71639;SDS011;60912;48.968;10.124;2023-07-31T07:13:47;5.38;;;1.70;;
71639;SDS011;60912;48.968;10.124;2023-07-31T07:16:13;3.60;;;1.27;;
71639;SDS011;60912;48.968;10.124;2023-07-31T07:19:01;4.82;;;1.67;;
71639;SDS011;60912;48.968;10.124;2023-07-31T07:21:31;4.30;;;1.80;;
71639;SDS011;60912;48.968;10.124;2023-07-31T07:23:57;3.93;;;1.40;;
71639;SDS011;60912;48.968;10.124;2023-07-31T07:26:25;6.00;;;1.63;;
71639;SDS011;60912;48.968;10.124;2023-07-31T07:28:53;5.15;;;1.77;;
71639;SDS011;60912;48.968;10.124;2023-07-31T07:34:10;5.22;;;1.80;;
71639;SDS011;60912;48.968;10.124;2023-07-31T07:36:38;4.97;;;1.90;;
71639;SDS011;60912;48.968;10.124;2023-07-31T07:39:04;7.90;;;1.90;;
71639;SDS011;60912;48.968;10.124;2023-07-31T07:41:30;4.93;;;1.80;;
71639;SDS011;60912;48.968;10.124;2023-07-31T07:43:55;5.97;;;1.60;;
71639;SDS011;60912;48.968;10.124;2023-07-31T07:46:21;5.83;;;1.67;;
71639;SDS011;60912;48.968;10.124;2023-07-31T07:49:05;5.63;;;1.87;;
71639;SDS011;60912;48.968;10.124;2023-07-31T07:51:42;5.10;;;1.75;;
71639;SDS011;60912;48.968;10.124;2023-07-31T07:54:18;4.43;;;1.60;;
71639;SDS011;60912;48.968;10.124;2023-07-31T07:56:47;4.15;;;1.50;;
71639;SDS011;60912;48.968;10.124;2023-07-31T07:59:15;5.15;;;1.67;;
71639;SDS011;60912;48.968;10.124;2023-07-31T08:01:51;5.70;;;1.70;;
71639;SDS011;60912;48.968;10.124;2023-07-31T08:04:20;6.47;;;1.80;;
71639;SDS011;60912;48.968;10.124;2023-07-31T08:06:45;6.68;;;1.95;;
71639;SDS011;60912;48.968;10.124;2023-07-31T08:09:10;5.47;;;1.80;;
71639;SDS011;60912;48.968;10.124;2023-07-31T08:11:36;4.67;;;1.60;;
71639;SDS011;60912;48.968;10.124;2023-07-31T08:14:01;5.22;;;1.92;;
71639;SDS011;60912;48.968;10.124;2023-07-31T08:16:27;8.83;;;1.80;;
71639;SDS011;60912;48.968;10.124;2023-07-31T08:18:52;5.23;;;1.80;;
71639;SDS011;60912;48.968;10.124;2023-07-31T08:21:18;4.85;;;1.80;;
71639;SDS011;60912;48.968;10.124;2023-07-31T08:23:43;3.73;;;1.70;;
71639;SDS011;60912;48.968;10.124;2023-07-31T08:26:14;5.83;;;1.80;;
71639;SDS011;60912;48.968;10.124;2023-07-31T08:28:40;5.10;;;1.80;;
71639;SDS011;60912;48.968;10.124;2023-07-31T08:31:05;5.37;;;1.90;;
71639;SDS011;60912;48.968;10.124;2023-07-31T08:33:31;6.47;;;1.90;;
71639;SDS011;60912;48.968;10.124;2023-07-31T08:35:56;6.97;;;1.90;;
71639;SDS011;60912;48.968;10.124;2023-07-31T08:38:22;6.37;;;1.80;;
71639;SDS011;60912;48.968;10.124;2023-07-31T08:40:50;5.45;;;1.98;;
71639;SDS011;60912;48.968;10.124;2023-07-31T08:43:15;6.67;;;1.97;;
71639;SDS011;60912;48.968;10.124;2023-07-31T08:45:41;4.67;;;1.70;;
71639;SDS011;60912;48.968;10.124;2023-07-31T08:48:10;6.18;;;1.98;;
71639;SDS011;60912;48.968;10.124;2023-07-31T08:50:36;5.05;;;2.25;;
71639;SDS011;60912;48.968;10.124;2023-07-31T08:53:03;5.55;;;2.03;;
71639;SDS011;60912;48.968;10.124;2023-07-31T08:55:28;5.10;;;1.90;;
71639;SDS011;60912;48.968;10.124;2023-07-31T08:57:54;7.80;;;2.40;;
71639;SDS011;60912;48.968;10.124;2023-07-31T09:00:21;6.38;;;2.00;;
71639;SDS011;60912;48.968;10.124;2023-07-31T09:02:54;5.75;;;2.33;;
71639;SDS011;60912;48.968;10.124;2023-07-31T09:05:24;5.93;;;2.08;;
71639;SDS011;60912;48.968;10.124;2023-07-31T09:07:51;5.60;;;2.05;;
71639;SDS011;60912;48.968;10.124;2023-07-31T09:10:17;7.57;;;2.20;;
71639;SDS011;60912;48.968;10.124;2023-07-31T09:12:45;6.32;;;2.20;;
71639;SDS011;60912;48.968;10.124;2023-07-31T09:15:12;5.72;;;2.17;;
71639;SDS011;60912;48.968;10.124;2023-07-31T09:17:37;6.83;;;2.07;;
71639;SDS011;60912;48.968;10.124;2023-07-31T09:22:39;5.40;;;2.17;;
71639;SDS011;60912;48.968;10.124;2023-07-31T09:27:50;5.10;;;2.00;;
71639;SDS011;60912;48.968;10.124;2023-07-31T09:30:20;5.97;;;2.08;;
71639;SDS011;60912;48.968;10.124;2023-07-31T09:32:46;6.07;;;2.30;;
71639;SDS011;60912;48.968;10.124;2023-07-31T09:35:13;6.97;;;2.13;;
71639;SDS011;60912;48.968;10.124;2023-07-31T09:37:47;4.30;;;2.05;;
71639;SDS011;60912;48.968;10.124;2023-07-31T09:40:26;5.30;;;1.90;;
71639;SDS011;60912;48.968;10.124;2023-07-31T09:42:52;6.68;;;2.20;;
71639;SDS011;60912;48.968;10.124;2023-07-31T09:45:18;5.63;;;2.15;;
71639;SDS011;60912;48.968;10.124;2023-07-31T09:47:47;6.43;;;1.90;;
71639;SDS011;60912;48.968;10.124;2023-07-31T09:50:13;6.60;;;2.35;;
71639;SDS011;60912;48.968;10.124;2023-07-31T09:52:39;5.63;;;2.07;;
71639;SDS011;60912;48.968;10.124;2023-07-31T09:55:05;5.53;;;2.17;;
71639;SDS011;60912;48.968;10.124;2023-07-31T09:57:31;5.60;;;2.20;;
71639;SDS011;60912;48.968;10.124;2023-07-31T09:59:57;4.53;;;1.90;;
71639;SDS011;60912;48.968;10.124;2023-07-31T10:02:23;6.72;;;2.40;;
71639;SDS011;60912;48.968;10.124;2023-07-31T10:04:49;5.85;;;2.20;;
71639;SDS011;60912;48.968;10.124;2023-07-31T10:07:16;6.77;;;2.43;;
71639;SDS011;60912;48.968;10.124;2023-07-31T10:09:43;6.15;;;2.05;;
71639;SDS011;60912;48.968;10.124;2023-07-31T10:12:10;6.80;;;2.08;;
71639;SDS011;60912;48.968;10.124;2023-07-31T10:14:39;4.53;;;2.03;;
71639;SDS011;60912;48.968;10.124;2023-07-31T10:17:08;6.55;;;2.25;;
71639;SDS011;60912;48.968;10.124;2023-07-31T10:19:34;6.70;;;2.07;;
71639;SDS011;60912;48.968;10.124;2023-07-31T10:22:10;7.00;;;2.40;;
71639;SDS011;60912;48.968;10.124;2023-07-31T10:24:48;5.78;;;2.30;;
71639;SDS011;60912;48.968;10.124;2023-07-31T10:27:22;6.07;;;2.40;;
71639;SDS011;60912;48.968;10.124;2023-07-31T10:29:48;5.33;;;2.00;;
71639;SDS011;60912;48.968;10.124;2023-07-31T10:32:14;5.10;;;2.10;;
71639;SDS011;60912;48.968;10.124;2023-07-31T10:34:45;5.18;;;2.10;;
71639;SDS011;60912;48.968;10.124;2023-07-31T10:37:30;7.17;;;2.30;;
71639;SDS011;60912;48.968;10.124;2023-07-31T10:40:18;5.28;;;1.80;;
71639;SDS011;60912;48.968;10.124;2023-07-31T10:42:53;4.55;;;1.98;;
71639;SDS011;60912;48.968;10.124;2023-07-31T10:45:32;7.00;;;2.50;;
71639;SDS011;60912;48.968;10.124;2023-07-31T10:50:46;5.17;;;2.10;;
71639;SDS011;60912;48.968;10.124;2023-07-31T10:53:26;5.88;;;2.00;;
71639;SDS011;60912;48.968;10.124;2023-07-31T10:55:57;5.07;;;1.98;;
71639;SDS011;60912;48.968;10.124;2023-07-31T10:58:27;6.18;;;2.08;;
71639;SDS011;60912;48.968;10.124;2023-07-31T11:01:00;4.73;;;1.93;;
71639;SDS011;60912;48.968;10.124;2023-07-31T11:03:47;5.80;;;2.30;;
71639;SDS011;60912;48.968;10.124;2023-07-31T11:06:15;5.00;;;2.03;;
71639;SDS011;60912;48.968;10.124;2023-07-31T11:08:42;4.82;;;2.13;;
71639;SDS011;60912;48.968;10.124;2023-07-31T11:11:13;5.00;;;1.90;;
71639;SDS011;60912;48.968;10.124;2023-07-31T11:16:20;5.40;;;1.90;;
71639;SDS011;60912;48.968;10.124;2023-07-31T11:18:47;5.80;;;2.20;;
71639;SDS011;60912;48.968;10.124;2023-07-31T11:23:39;5.53;;;2.00;;
71639;SDS011;60912;48.968;10.124;2023-07-31T11:26:05;6.13;;;2.10;;
71639;SDS011;60912;48.968;10.124;2023-07-31T11:28:32;6.20;;;2.10;;
71639;SDS011;60912;48.968;10.124;2023-07-31T11:30:59;5.38;;;2.22;;
71639;SDS011;60912;48.968;10.124;2023-07-31T11:33:26;5.82;;;2.20;;
71639;SDS011;60912;48.968;10.124;2023-07-31T11:35:51;3.37;;;1.80;;
71639;SDS011;60912;48.968;10.124;2023-07-31T11:38:29;5.97;;;2.10;;
71639;SDS011;60912;48.968;10.124;2023-07-31T11:40:57;5.38;;;2.35;;
71639;SDS011;60912;48.968;10.124;2023-07-31T11:43:24;4.97;;;2.03;;
71639;SDS011;60912;48.968;10.124;2023-07-31T11:45:56;6.70;;;2.33;;
71639;SDS011;60912;48.968;10.124;2023-07-31T11:48:26;6.60;;;2.08;;
71639;SDS011;60912;48.968;10.124;2023-07-31T11:50:53;4.83;;;1.87;;
71639;SDS011;60912;48.968;10.124;2023-07-31T11:53:26;5.90;;;1.90;;
71639;SDS011;60912;48.968;10.124;2023-07-31T11:56:05;4.40;;;1.80;;
71639;SDS011;60912;48.968;10.124;2023-07-31T11:58:33;4.75;;;2.17;;
71639;SDS011;60912;48.968;10.124;2023-07-31T12:00:59;8.10;;;2.22;;
71639;SDS011;60912;48.968;10.124;2023-07-31T12:03:26;7.27;;;2.33;;
71639;SDS011;60912;48.968;10.124;2023-07-31T12:05:54;6.78;;;2.33;;
71639;SDS011;60912;48.968;10.124;2023-07-31T12:08:20;4.25;;;2.00;;
71639;SDS011;60912;48.968;10.124;2023-07-31T12:10:46;5.90;;;2.15;;
71639;SDS011;60912;48.968;10.124;2023-07-31T12:13:21;6.88;;;2.42;;
71639;SDS011;60912;48.968;10.124;2023-07-31T12:15:54;5.73;;;2.17;;
71639;SDS011;60912;48.968;10.124;2023-07-31T12:18:22;5.78;;;2.25;;
71639;SDS011;60912;48.968;10.124;2023-07-31T12:20:53;6.03;;;2.00;;
71639;SDS011;60912;48.968;10.124;2023-07-31T12:23:20;4.82;;;1.95;;
71639;SDS011;60912;48.968;10.124;2023-07-31T12:26:09;6.78;;;2.10;;
71639;SDS011;60912;48.968;10.124;2023-07-31T12:28:36;4.70;;;2.00;;
71639;SDS011;60912;48.968;10.124;2023-07-31T12:31:04;4.97;;;2.22;;
71639;SDS011;60912;48.968;10.124;2023-07-31T12:33:36;8.02;;;2.63;;
71639;SDS011;60912;48.968;10.124;2023-07-31T12:36:04;5.20;;;2.40;;
71639;SDS011;60912;48.968;10.124;2023-07-31T12:38:33;4.95;;;2.10;;
71639;SDS011;60912;48.968;10.124;2023-07-31T12:40:58;6.40;;;2.60;;
71639;SDS011;60912;48.968;10.124;2023-07-31T12:43:23;4.90;;;2.20;;
71639;SDS011;60912;48.968;10.124;2023-07-31T12:45:49;5.57;;;2.30;;
71639;SDS011;60912;48.968;10.124;2023-07-31T12:48:14;5.10;;;2.50;;
71639;SDS011;60912;48.968;10.124;2023-07-31T12:50:40;6.18;;;2.28;;
71639;SDS011;60912;48.968;10.124;2023-07-31T12:53:05;5.30;;;2.10;;
71639;SDS011;60912;48.968;10.124;2023-07-31T12:55:32;8.07;;;2.50;;
71639;SDS011;60912;48.968;10.124;2023-07-31T12:57:59;7.17;;;2.20;;
71639;SDS011;60912;48.968;10.124;2023-07-31T13:00:25;6.00;;;2.35;;
71639;SDS011;60912;48.968;10.124;2023-07-31T13:02:51;5.35;;;2.30;;
71639;SDS011;60912;48.968;10.124;2023-07-31T13:05:17;6.13;;;2.20;;
71639;SDS011;60912;48.968;10.124;2023-07-31T13:07:43;5.38;;;2.17;;
71639;SDS011;60912;48.968;10.124;2023-07-31T13:10:08;5.87;;;2.13;;
71639;SDS011;60912;48.968;10.124;2023-07-31T13:12:33;5.47;;;2.37;;
71639;SDS011;60912;48.968;10.124;2023-07-31T13:14:59;6.50;;;2.20;;
71639;SDS011;60912;48.968;10.124;2023-07-31T13:17:27;7.68;;;2.40;;
71639;SDS011;60912;48.968;10.124;2023-07-31T13:19:52;7.97;;;2.10;;
71639;SDS011;60912;48.968;10.124;2023-07-31T13:22:18;6.13;;;2.40;;
71639;SDS011;60912;48.968;10.124;2023-07-31T13:24:43;4.03;;;2.20;;
71639;SDS011;60912;48.968;10.124;2023-07-31T13:27:08;5.82;;;2.10;;
71639;SDS011;60912;48.968;10.124;2023-07-31T13:29:34;5.77;;;2.50;;
71639;SDS011;60912;48.968;10.124;2023-07-31T13:31:59;7.23;;;2.50;;
71639;SDS011;60912;48.968;10.124;2023-07-31T13:34:25;7.70;;;2.50;;
71639;SDS011;60912;48.968;10.124;2023-07-31T13:36:50;6.18;;;2.22;;
71639;SDS011;60912;48.968;10.124;2023-07-31T13:39:15;4.93;;;2.20;;
71639;SDS011;60912;48.968;10.124;2023-07-31T13:41:41;5.63;;;2.30;;
71639;SDS011;60912;48.968;10.124;2023-07-31T13:44:07;5.77;;;2.60;;
71639;SDS011;60912;48.968;10.124;2023-07-31T13:47:01;7.45;;;2.67;;
71639;SDS011;60912;48.968;10.124;2023-07-31T13:52:15;5.95;;;2.33;;
71639;SDS011;60912;48.968;10.124;2023-07-31T13:54:47;5.00;;;2.37;;
71639;SDS011;60912;48.968;10.124;2023-07-31T13:57:13;6.32;;;2.25;;
71639;SDS011;60912;48.968;10.124;2023-07-31T13:59:39;5.67;;;2.10;;
71639;SDS011;60912;48.968;10.124;2023-07-31T14:02:04;6.47;;;2.38;;
71639;SDS011;60912;48.968;10.124;2023-07-31T14:04:30;5.97;;;2.40;;
71639;SDS011;60912;48.968;10.124;2023-07-31T14:06:55;5.67;;;2.53;;
71639;SDS011;60912;48.968;10.124;2023-07-31T14:09:28;7.53;;;2.05;;
71639;SDS011;60912;48.968;10.124;2023-07-31T14:11:53;7.22;;;2.40;;
71639;SDS011;60912;48.968;10.124;2023-07-31T14:14:19;4.53;;;2.23;;
71639;SDS011;60912;48.968;10.124;2023-07-31T14:16:44;5.57;;;2.20;;
71639;SDS011;60912;48.968;10.124;2023-07-31T14:19:10;6.35;;;2.10;;
71639;SDS011;60912;48.968;10.124;2023-07-31T14:21:38;5.63;;;2.30;;
71639;SDS011;60912;48.968;10.124;2023-07-31T14:24:04;5.15;;;2.50;;
71639;SDS011;60912;48.968;10.124;2023-07-31T14:26:30;5.03;;;2.30;;
71639;SDS011;60912;48.968;10.124;2023-07-31T14:28:55;5.28;;;2.42;;
71639;SDS011;60912;48.968;10.124;2023-07-31T14:31:20;4.70;;;2.37;;
71639;SDS011;60912;48.968;10.124;2023-07-31T14:33:48;4.63;;;2.20;;
71639;SDS011;60912;48.968;10.124;2023-07-31T14:36:14;5.85;;;2.40;;
71639;SDS011;60912;48.968;10.124;2023-07-31T14:38:39;5.53;;;2.27;;
71639;SDS011;60912;48.968;10.124;2023-07-31T14:41:05;7.57;;;2.65;;
71639;SDS011;60912;48.968;10.124;2023-07-31T14:43:34;5.37;;;2.40;;
71639;SDS011;60912;48.968;10.124;2023-07-31T14:46:01;5.18;;;2.53;;
71639;SDS011;60912;48.968;10.124;2023-07-31T14:48:27;7.63;;;2.37;;
71639;SDS011;60912;48.968;10.124;2023-07-31T14:50:52;6.75;;;2.08;;
71639;SDS011;60912;48.968;10.124;2023-07-31T14:53:18;6.20;;;2.50;;
71639;SDS011;60912;48.968;10.124;2023-07-31T14:55:44;6.15;;;2.50;;
71639;SDS011;60912;48.968;10.124;2023-07-31T14:58:10;5.80;;;2.50;;
71639;SDS011;60912;48.968;10.124;2023-07-31T15:00:36;4.93;;;2.35;;
71639;SDS011;60912;48.968;10.124;2023-07-31T15:03:02;4.75;;;2.40;;
71639;SDS011;60912;48.968;10.124;2023-07-31T15:05:27;6.10;;;2.40;;
71639;SDS011;60912;48.968;10.124;2023-07-31T15:07:53;6.70;;;2.40;;
71639;SDS011;60912;48.968;10.124;2023-07-31T15:10:18;5.60;;;2.33;;
71639;SDS011;60912;48.968;10.124;2023-07-31T15:12:46;8.38;;;2.33;;
71639;SDS011;60912;48.968;10.124;2023-07-31T15:15:12;6.70;;;2.57;;
71639;SDS011;60912;48.968;10.124;2023-07-31T15:17:40;7.35;;;2.42;;